sensor_id;sensor_type;location;lat;lon;timestamp;temperature;humidity
64869;DHT22;51349;52.424;10.840;2023-02-01T00:01:48;4.50;99.90
64869;DHT22;51349;52.424;10.840;2023-02-01T00:06:49;4.60;99.90
64869;DHT22;51349;52.424;10.840;2023-02-01T00:11:49;4.60;99.90
64869;DHT22;51349;52.424;10.840;2023-02-01T00:16:50;4.60;99.90
64869;DHT22;51349;52.424;10.840;2023-02-01T00:21:51;4.60;99.90
64869;DHT22;51349;52.424;10.840;2023-02-01T00:26:51;4.70;99.90
64869;DHT22;51349;52.424;10.840;2023-02-01T00:31:52;4.80;99.90
64869;DHT22;51349;52.424;10.840;2023-02-01T00:36:53;4.80;99.90
64869;DHT22;51349;52.424;10.840;2023-02-01T00:41:53;4.80;99.90
64869;DHT22;51349;52.424;10.840;2023-02-01T00:46:54;4.90;99.90
64869;DHT22;51349;52.424;10.840;2023-02-01T00:51:55;5.00;99.90
64869;DHT22;51349;52.424;10.840;2023-02-01T00:56:55;5.00;99.90
64869;DHT22;51349;52.424;10.840;2023-02-01T01:01:56;5.00;99.90
64869;DHT22;51349;52.424;10.840;2023-02-01T01:06:57;5.00;99.90
64869;DHT22;51349;52.424;10.840;2023-02-01T01:11:57;5.00;99.90
64869;DHT22;51349;52.424;10.840;2023-02-01T01:17:02;5.00;99.90
64869;DHT22;51349;52.424;10.840;2023-02-01T01:22:06;5.00;99.90
64869;DHT22;51349;52.424;10.840;2023-02-01T01:27:06;5.00;99.90
64869;DHT22;51349;52.424;10.840;2023-02-01T01:32:07;5.00;99.90
64869;DHT22;51349;52.424;10.840;2023-02-01T01:37:08;5.00;99.90
64869;DHT22;51349;52.424;10.840;2023-02-01T01:42:11;5.00;99.90
64869;DHT22;51349;52.424;10.840;2023-02-01T01:47:15;5.10;99.90
64869;DHT22;51349;52.424;10.840;2023-02-01T01:52:16;5.10;99.90
64869;DHT22;51349;52.424;10.840;2023-02-01T01:57:23;5.10;99.90
64869;DHT22;51349;52.424;10.840;2023-02-01T02:02:24;5.10;99.90
64869;DHT22;51349;52.424;10.840;2023-02-01T02:07:31;5.10;99.90
64869;DHT22;51349;52.424;10.840;2023-02-01T02:12:32;5.10;99.90
64869;DHT22;51349;52.424;10.840;2023-02-01T02:17:50;5.10;99.90
64869;DHT22;51349;52.424;10.840;2023-02-01T02:44:38;5.10;99.90
64869;DHT22;51349;52.424;10.840;2023-02-01T02:50:13;5.10;99.90
64869;DHT22;51349;52.424;10.840;2023-02-01T02:55:35;5.10;99.90
64869;DHT22;51349;52.424;10.840;2023-02-01T03:00:37;5.10;99.90
64869;DHT22;51349;52.424;10.840;2023-02-01T03:05:58;5.10;99.90
64869;DHT22;51349;52.424;10.840;2023-02-01T03:11:09;5.10;99.90
64869;DHT22;51349;52.424;10.840;2023-02-01T03:21:18;4.90;99.90
64869;DHT22;51349;52.424;10.840;2023-02-01T03:26:20;5.00;99.90
64869;DHT22;51349;52.424;10.840;2023-02-01T03:31:23;4.90;99.90
64869;DHT22;51349;52.424;10.840;2023-02-01T03:36:31;5.00;99.90
64869;DHT22;51349;52.424;10.840;2023-02-01T03:41:45;4.90;99.90
64869;DHT22;51349;52.424;10.840;2023-02-01T03:52:24;4.80;99.90
64869;DHT22;51349;52.424;10.840;2023-02-01T03:57:32;4.90;99.90
64869;DHT22;51349;52.424;10.840;2023-02-01T04:02:34;4.90;99.90
64869;DHT22;51349;52.424;10.840;2023-02-01T04:07:35;4.80;99.90
64869;DHT22;51349;52.424;10.840;2023-02-01T04:12:36;4.80;99.90
64869;DHT22;51349;52.424;10.840;2023-02-01T04:17:36;4.80;99.90
64869;DHT22;51349;52.424;10.840;2023-02-01T04:22:37;4.80;99.90
64869;DHT22;51349;52.424;10.840;2023-02-01T04:27:37;4.80;99.90
64869;DHT22;51349;52.424;10.840;2023-02-01T04:32:38;4.70;99.90
64869;DHT22;51349;52.424;10.840;2023-02-01T04:37:39;4.80;99.90
64869;DHT22;51349;52.424;10.840;2023-02-01T04:42:40;4.70;99.90
64869;DHT22;51349;52.424;10.840;2023-02-01T04:47:40;4.70;99.90
64869;DHT22;51349;52.424;10.840;2023-02-01T04:52:41;4.70;99.90
64869;DHT22;51349;52.424;10.840;2023-02-01T04:57:42;4.80;99.90
64869;DHT22;51349;52.424;10.840;2023-02-01T05:02:42;4.80;99.90
64869;DHT22;51349;52.424;10.840;2023-02-01T05:07:43;4.80;99.90
64869;DHT22;51349;52.424;10.840;2023-02-01T05:12:44;4.80;99.90
64869;DHT22;51349;52.424;10.840;2023-02-01T05:18:03;4.90;99.90
64869;DHT22;51349;52.424;10.840;2023-02-01T05:23:04;4.90;99.90
64869;DHT22;51349;52.424;10.840;2023-02-01T05:28:06;5.00;99.90
64869;DHT22;51349;52.424;10.840;2023-02-01T05:33:07;5.00;99.90
64869;DHT22;51349;52.424;10.840;2023-02-01T05:38:07;4.90;99.90
64869;DHT22;51349;52.424;10.840;2023-02-01T05:43:08;4.80;99.90
64869;DHT22;51349;52.424;10.840;2023-02-01T05:48:08;4.60;99.90
64869;DHT22;51349;52.424;10.840;2023-02-01T05:53:09;4.50;99.90
64869;DHT22;51349;52.424;10.840;2023-02-01T05:58:10;4.50;99.90
64869;DHT22;51349;52.424;10.840;2023-02-01T06:03:11;4.40;99.90
64869;DHT22;51349;52.424;10.840;2023-02-01T06:08:12;4.40;99.90
64869;DHT22;51349;52.424;10.840;2023-02-01T06:13:13;4.30;99.90
64869;DHT22;51349;52.424;10.840;2023-02-01T06:18:13;4.20;99.90
64869;DHT22;51349;52.424;10.840;2023-02-01T06:23:16;4.10;99.90
64869;DHT22;51349;52.424;10.840;2023-02-01T06:28:16;4.10;99.90
64869;DHT22;51349;52.424;10.840;2023-02-01T06:33:17;4.10;99.90
64869;DHT22;51349;52.424;10.840;2023-02-01T06:38:17;4.20;99.90
64869;DHT22;51349;52.424;10.840;2023-02-01T06:43:19;4.20;99.90
64869;DHT22;51349;52.424;10.840;2023-02-01T06:48:20;4.20;99.90
64869;DHT22;51349;52.424;10.840;2023-02-01T06:53:20;4.20;99.90
64869;DHT22;51349;52.424;10.840;2023-02-01T06:58:21;4.30;99.90
64869;DHT22;51349;52.424;10.840;2023-02-01T07:03:22;4.20;99.90
64869;DHT22;51349;52.424;10.840;2023-02-01T07:08:23;4.20;99.90
64869;DHT22;51349;52.424;10.840;2023-02-01T07:13:24;4.20;99.90
64869;DHT22;51349;52.424;10.840;2023-02-01T07:18:25;4.10;99.90
64869;DHT22;51349;52.424;10.840;2023-02-01T07:23:26;3.90;99.90
64869;DHT22;51349;52.424;10.840;2023-02-01T07:28:30;4.00;99.90
64869;DHT22;51349;52.424;10.840;2023-02-01T07:33:31;4.00;99.90
64869;DHT22;51349;52.424;10.840;2023-02-01T07:38:32;4.10;99.90
64869;DHT22;51349;52.424;10.840;2023-02-01T07:43:33;4.20;99.90
64869;DHT22;51349;52.424;10.840;2023-02-01T07:48:34;4.20;99.90
64869;DHT22;51349;52.424;10.840;2023-02-01T07:53:36;4.30;99.90
64869;DHT22;51349;52.424;10.840;2023-02-01T07:58:37;4.20;99.90
64869;DHT22;51349;52.424;10.840;2023-02-01T08:03:37;4.20;99.90
64869;DHT22;51349;52.424;10.840;2023-02-01T08:08:38;4.30;99.90
64869;DHT22;51349;52.424;10.840;2023-02-01T08:13:39;4.30;99.90
64869;DHT22;51349;52.424;10.840;2023-02-01T08:18:40;4.20;99.90
64869;DHT22;51349;52.424;10.840;2023-02-01T08:23:42;4.30;99.90
64869;DHT22;51349;52.424;10.840;2023-02-01T08:28:46;4.30;99.90
64869;DHT22;51349;52.424;10.840;2023-02-01T08:33:55;4.30;99.90
64869;DHT22;51349;52.424;10.840;2023-02-01T08:38:57;4.20;99.90
64869;DHT22;51349;52.424;10.840;2023-02-01T08:43:57;4.20;99.90
64869;DHT22;51349;52.424;10.840;2023-02-01T08:48:58;4.30;99.90
64869;DHT22;51349;52.424;10.840;2023-02-01T08:53:59;4.40;99.90
64869;DHT22;51349;52.424;10.840;2023-02-01T08:59:01;4.50;99.90
64869;DHT22;51349;52.424;10.840;2023-02-01T09:04:01;4.40;99.90
64869;DHT22;51349;52.424;10.840;2023-02-01T09:09:02;4.60;99.90
64869;DHT22;51349;52.424;10.840;2023-02-01T09:14:03;4.60;99.90
64869;DHT22;51349;52.424;10.840;2023-02-01T09:19:04;4.70;99.90
64869;DHT22;51349;52.424;10.840;2023-02-01T09:24:05;4.70;99.90
64869;DHT22;51349;52.424;10.840;2023-02-01T09:29:06;4.70;99.90
64869;DHT22;51349;52.424;10.840;2023-02-01T09:34:12;4.70;99.90
64869;DHT22;51349;52.424;10.840;2023-02-01T09:39:13;5.00;99.90
64869;DHT22;51349;52.424;10.840;2023-02-01T09:44:45;5.20;99.90
64869;DHT22;51349;52.424;10.840;2023-02-01T09:54:58;4.60;99.90
64869;DHT22;51349;52.424;10.840;2023-02-01T10:00:14;4.50;99.90
64869;DHT22;51349;52.424;10.840;2023-02-01T10:05:32;4.50;99.90
64869;DHT22;51349;52.424;10.840;2023-02-01T10:10:49;4.50;99.90
64869;DHT22;51349;52.424;10.840;2023-02-01T10:16:13;4.50;99.90
64869;DHT22;51349;52.424;10.840;2023-02-01T10:26:33;4.80;99.90
64869;DHT22;51349;52.424;10.840;2023-02-01T10:31:37;5.10;99.90
64869;DHT22;51349;52.424;10.840;2023-02-01T10:41:54;5.30;99.90
64869;DHT22;51349;52.424;10.840;2023-02-01T10:46:55;5.40;99.90
64869;DHT22;51349;52.424;10.840;2023-02-01T10:57:07;6.20;99.90
64869;DHT22;51349;52.424;10.840;2023-02-01T11:02:33;6.00;99.90
64869;DHT22;51349;52.424;10.840;2023-02-01T11:07:36;6.30;99.90
64869;DHT22;51349;52.424;10.840;2023-02-01T11:12:38;6.30;99.90
64869;DHT22;51349;52.424;10.840;2023-02-01T11:17:44;6.10;99.90
64869;DHT22;51349;52.424;10.840;2023-02-01T11:22:53;6.20;99.90
64869;DHT22;51349;52.424;10.840;2023-02-01T11:27:55;6.00;99.90
64869;DHT22;51349;52.424;10.840;2023-02-01T11:32:57;6.10;99.90
64869;DHT22;51349;52.424;10.840;2023-02-01T11:37:59;6.20;99.90
64869;DHT22;51349;52.424;10.840;2023-02-01T11:48:09;6.10;99.90
64869;DHT22;51349;52.424;10.840;2023-02-01T11:53:25;6.10;99.90
64869;DHT22;51349;52.424;10.840;2023-02-01T12:10:15;6.70;99.90
64869;DHT22;51349;52.424;10.840;2023-02-01T12:26:12;6.60;99.90
64869;DHT22;51349;52.424;10.840;2023-02-01T12:31:31;6.40;99.90
64869;DHT22;51349;52.424;10.840;2023-02-01T12:36:48;6.30;99.90
64869;DHT22;51349;52.424;10.840;2023-02-01T12:42:12;6.30;99.90
64869;DHT22;51349;52.424;10.840;2023-02-01T12:47:33;6.30;99.90
64869;DHT22;51349;52.424;10.840;2023-02-01T12:52:44;6.10;99.90
64869;DHT22;51349;52.424;10.840;2023-02-01T12:58:07;6.10;99.90
64869;DHT22;51349;52.424;10.840;2023-02-01T13:03:53;5.90;99.90
64869;DHT22;51349;52.424;10.840;2023-02-01T13:19:43;5.20;99.90
64869;DHT22;51349;52.424;10.840;2023-02-01T13:24:50;5.10;99.90
64869;DHT22;51349;52.424;10.840;2023-02-01T13:30:04;5.00;99.90
64869;DHT22;51349;52.424;10.840;2023-02-01T13:46:08;4.90;99.90
64869;DHT22;51349;52.424;10.840;2023-02-01T13:51:10;4.90;99.90
64869;DHT22;51349;52.424;10.840;2023-02-01T13:56:14;4.80;99.90
64869;DHT22;51349;52.424;10.840;2023-02-01T14:11:39;4.10;99.90
64869;DHT22;51349;52.424;10.840;2023-02-01T14:27:26;4.30;99.90
64869;DHT22;51349;52.424;10.840;2023-02-01T14:32:40;4.40;99.90
64869;DHT22;51349;52.424;10.840;2023-02-01T14:37:51;4.40;99.90
64869;DHT22;51349;52.424;10.840;2023-02-01T14:42:54;4.30;99.90
64869;DHT22;51349;52.424;10.840;2023-02-01T14:53:23;4.30;99.90
64869;DHT22;51349;52.424;10.840;2023-02-01T15:04:11;4.30;99.90
64869;DHT22;51349;52.424;10.840;2023-02-01T15:09:20;4.30;99.90
64869;DHT22;51349;52.424;10.840;2023-02-01T15:14:21;4.30;99.90
64869;DHT22;51349;52.424;10.840;2023-02-01T15:19:24;4.30;99.90
64869;DHT22;51349;52.424;10.840;2023-02-01T15:24:28;4.20;99.90
64869;DHT22;51349;52.424;10.840;2023-02-01T15:29:29;4.20;99.90
64869;DHT22;51349;52.424;10.840;2023-02-01T15:34:47;4.00;99.90
64869;DHT22;51349;52.424;10.840;2023-02-01T15:45:19;3.90;99.90
64869;DHT22;51349;52.424;10.840;2023-02-01T15:50:21;3.80;99.90
64869;DHT22;51349;52.424;10.840;2023-02-01T15:55:39;3.80;99.90
64869;DHT22;51349;52.424;10.840;2023-02-01T16:01:02;3.80;99.90
64869;DHT22;51349;52.424;10.840;2023-02-01T16:06:29;3.80;99.90
64869;DHT22;51349;52.424;10.840;2023-02-01T16:11:32;3.70;99.90
64869;DHT22;51349;52.424;10.840;2023-02-01T16:16:39;3.70;99.90
64869;DHT22;51349;52.424;10.840;2023-02-01T16:21:40;3.80;99.90
64869;DHT22;51349;52.424;10.840;2023-02-01T16:26:41;3.80;99.90
64869;DHT22;51349;52.424;10.840;2023-02-01T16:31:41;3.70;99.90
64869;DHT22;51349;52.424;10.840;2023-02-01T16:36:43;3.70;99.90
64869;DHT22;51349;52.424;10.840;2023-02-01T16:41:44;3.70;99.90
64869;DHT22;51349;52.424;10.840;2023-02-01T16:46:46;3.70;99.90
64869;DHT22;51349;52.424;10.840;2023-02-01T16:51:50;3.70;99.90
64869;DHT22;51349;52.424;10.840;2023-02-01T16:56:53;3.60;99.90
64869;DHT22;51349;52.424;10.840;2023-02-01T17:01:54;3.60;99.90
64869;DHT22;51349;52.424;10.840;2023-02-01T17:06:55;3.60;99.90
64869;DHT22;51349;52.424;10.840;2023-02-01T17:11:55;3.60;99.90
64869;DHT22;51349;52.424;10.840;2023-02-01T17:16:56;3.60;99.90
64869;DHT22;51349;52.424;10.840;2023-02-01T17:21:57;3.70;99.90
64869;DHT22;51349;52.424;10.840;2023-02-01T17:26:58;3.60;99.90
64869;DHT22;51349;52.424;10.840;2023-02-01T17:31:59;3.30;99.90
64869;DHT22;51349;52.424;10.840;2023-02-01T17:37:00;2.70;99.90
64869;DHT22;51349;52.424;10.840;2023-02-01T17:42:02;2.60;99.90
64869;DHT22;51349;52.424;10.840;2023-02-01T17:47:03;2.50;99.90
64869;DHT22;51349;52.424;10.840;2023-02-01T17:52:04;2.50;99.90
64869;DHT22;51349;52.424;10.840;2023-02-01T17:57:13;2.60;99.90
64869;DHT22;51349;52.424;10.840;2023-02-01T18:02:21;2.70;99.90
64869;DHT22;51349;52.424;10.840;2023-02-01T18:07:22;2.70;99.90
64869;DHT22;51349;52.424;10.840;2023-02-01T18:12:23;2.70;99.90
64869;DHT22;51349;52.424;10.840;2023-02-01T18:17:25;2.80;99.90
64869;DHT22;51349;52.424;10.840;2023-02-01T18:22:26;3.10;99.90
64869;DHT22;51349;52.424;10.840;2023-02-01T18:27:27;3.10;99.90
64869;DHT22;51349;52.424;10.840;2023-02-01T18:32:29;3.20;99.90
64869;DHT22;51349;52.424;10.840;2023-02-01T18:37:29;3.20;99.90
64869;DHT22;51349;52.424;10.840;2023-02-01T18:42:30;3.40;99.90
64869;DHT22;51349;52.424;10.840;2023-02-01T18:47:30;3.40;99.90
64869;DHT22;51349;52.424;10.840;2023-02-01T18:52:31;3.50;99.90
64869;DHT22;51349;52.424;10.840;2023-02-01T18:57:32;3.60;99.90
64869;DHT22;51349;52.424;10.840;2023-02-01T19:02:32;3.40;99.90
64869;DHT22;51349;52.424;10.840;2023-02-01T19:07:35;3.40;99.90
64869;DHT22;51349;52.424;10.840;2023-02-01T19:12:35;3.40;99.90
64869;DHT22;51349;52.424;10.840;2023-02-01T19:17:39;3.20;99.90
64869;DHT22;51349;52.424;10.840;2023-02-01T19:22:40;3.20;99.90
64869;DHT22;51349;52.424;10.840;2023-02-01T19:27:41;3.10;99.90
64869;DHT22;51349;52.424;10.840;2023-02-01T19:32:41;3.10;99.90
64869;DHT22;51349;52.424;10.840;2023-02-01T19:37:42;3.00;99.90
64869;DHT22;51349;52.424;10.840;2023-02-01T19:42:43;2.90;99.90
64869;DHT22;51349;52.424;10.840;2023-02-01T19:47:44;3.00;99.90
64869;DHT22;51349;52.424;10.840;2023-02-01T19:52:45;2.90;99.90
64869;DHT22;51349;52.424;10.840;2023-02-01T19:57:45;2.90;99.90
64869;DHT22;51349;52.424;10.840;2023-02-01T20:02:46;2.80;99.90
64869;DHT22;51349;52.424;10.840;2023-02-01T20:07:47;2.90;99.90
64869;DHT22;51349;52.424;10.840;2023-02-01T20:12:48;3.10;99.90
64869;DHT22;51349;52.424;10.840;2023-02-01T20:17:49;3.10;99.90
64869;DHT22;51349;52.424;10.840;2023-02-01T20:22:51;3.30;99.90
64869;DHT22;51349;52.424;10.840;2023-02-01T20:27:52;3.40;99.90
64869;DHT22;51349;52.424;10.840;2023-02-01T20:32:52;3.40;99.90
64869;DHT22;51349;52.424;10.840;2023-02-01T20:37:53;3.60;99.90
64869;DHT22;51349;52.424;10.840;2023-02-01T20:42:56;3.60;99.90
64869;DHT22;51349;52.424;10.840;2023-02-01T20:47:56;3.60;99.90
64869;DHT22;51349;52.424;10.840;2023-02-01T20:52:57;3.50;99.90
64869;DHT22;51349;52.424;10.840;2023-02-01T20:57:58;3.60;99.90
64869;DHT22;51349;52.424;10.840;2023-02-01T21:02:59;3.60;99.90
64869;DHT22;51349;52.424;10.840;2023-02-01T21:07:59;3.50;99.90
64869;DHT22;51349;52.424;10.840;2023-02-01T21:13:00;3.50;99.90
64869;DHT22;51349;52.424;10.840;2023-02-01T21:18:02;3.50;99.90
64869;DHT22;51349;52.424;10.840;2023-02-01T21:23:03;3.70;99.90
64869;DHT22;51349;52.424;10.840;2023-02-01T21:28:04;3.80;99.90
64869;DHT22;51349;52.424;10.840;2023-02-01T21:33:05;3.90;99.90
64869;DHT22;51349;52.424;10.840;2023-02-01T21:38:07;4.10;99.90
64869;DHT22;51349;52.424;10.840;2023-02-01T21:43:09;4.10;99.90
64869;DHT22;51349;52.424;10.840;2023-02-01T21:48:12;4.20;99.90
64869;DHT22;51349;52.424;10.840;2023-02-01T21:53:13;4.30;99.90
64869;DHT22;51349;52.424;10.840;2023-02-01T21:58:13;4.30;99.90
64869;DHT22;51349;52.424;10.840;2023-02-01T22:03:14;4.40;99.90
64869;DHT22;51349;52.424;10.840;2023-02-01T22:08:14;4.40;99.90
64869;DHT22;51349;52.424;10.840;2023-02-01T22:13:15;4.30;99.90
64869;DHT22;51349;52.424;10.840;2023-02-01T22:18:16;4.40;99.90
64869;DHT22;51349;52.424;10.840;2023-02-01T22:23:18;4.40;99.90
64869;DHT22;51349;52.424;10.840;2023-02-01T22:28:18;4.40;99.90
64869;DHT22;51349;52.424;10.840;2023-02-01T22:33:21;4.50;99.90
64869;DHT22;51349;52.424;10.840;2023-02-01T22:38:22;4.50;99.90
64869;DHT22;51349;52.424;10.840;2023-02-01T22:43:24;4.50;99.90
64869;DHT22;51349;52.424;10.840;2023-02-01T22:48:26;4.60;99.90
64869;DHT22;51349;52.424;10.840;2023-02-01T22:53:28;4.60;99.90
64869;DHT22;51349;52.424;10.840;2023-02-01T22:58:29;4.50;99.90
64869;DHT22;51349;52.424;10.840;2023-02-01T23:03:30;4.50;99.90
64869;DHT22;51349;52.424;10.840;2023-02-01T23:08:31;4.50;99.90
64869;DHT22;51349;52.424;10.840;2023-02-01T23:13:35;4.70;99.90
64869;DHT22;51349;52.424;10.840;2023-02-01T23:18:36;4.60;99.90
64869;DHT22;51349;52.424;10.840;2023-02-01T23:23:37;4.70;99.90
64869;DHT22;51349;52.424;10.840;2023-02-01T23:28:38;4.70;99.90
64869;DHT22;51349;52.424;10.840;2023-02-01T23:33:40;4.70;99.90
64869;DHT22;51349;52.424;10.840;2023-02-01T23:38:44;4.70;99.90
64869;DHT22;51349;52.424;10.840;2023-02-01T23:43:45;4.70;99.90
64869;DHT22;51349;52.424;10.840;2023-02-01T23:48:59;4.60;99.90
64869;DHT22;51349;52.424;10.840;2023-02-01T23:54:00;4.70;99.90
64869;DHT22;51349;52.424;10.840;2023-02-01T23:59:03;4.60;99.90
